IST,Max TemperatureF,Mean TemperatureF,Min TemperatureF,Max Dew PointF,MeanDew PointF,Min DewpointF,Max Humidity, Mean Humidity, Min Humidity, Max Sea Level PressureIn, Mean Sea Level PressureIn, Min Sea Level PressureIn, Max VisibilityMiles, Mean VisibilityMiles, Min VisibilityMiles, Max Wind SpeedMPH, Mean Wind SpeedMPH, Max Gust SpeedMPH,PrecipitationIn, CloudCover, Events, WindDirDegrees
2013-10-1,89,83,77,77,73,70,94,74,58,29.83,29.78,29.74,2,2,2,10,7,,0.00,4,,94
2013-10-2,91,84,77,73,72,68,89,68,52,29.92,29.84,29.80,2,2,2,14,7,,0.00,3,,95
2013-10-3,91,83,75,70,69,68,83,66,46,29.89,29.82,29.74,3,2,2,15,7,,0.00,3,,92
2013-10-4,78,76,73,73,71,68,94,86,78,29.83,29.77,29.71,2,2,1,14,7,21,0.00,6,Rain,73
2013-10-5,89,81,73,73,72,68,94,73,49,29.77,29.70,29.62,2,2,1,9,4,,0.00,4,,28
2013-10-6,91,83,75,75,74,72,94,74,52,29.80,29.74,29.71,1,1,1,8,3,,0.00,3,,134
2013-10-7,91,84,78,75,74,72,89,73,52,29.89,29.83,29.77,2,1,1,7,4,,0.00,4,,117
2013-10-8,93,85,77,75,74,72,89,70,49,29.92,29.85,29.62,2,1,1,8,4,,0.00,3,,121
2013-10-9,93,86,78,75,73,70,89,68,46,29.95,29.87,29.83,2,2,1,10,6,,0.00,3,,129
2013-10-10,93,85,77,73,71,66,89,65,43,29.95,29.88,29.83,2,2,1,7,3,,0.00,2,,127
2013-10-11,84,76,69,73,70,68,100,84,66,30.04,29.89,29.80,3,2,1,13,4,23,0.00,5,Rain-Thunderstorm,89
2013-10-12,86,80,73,75,72,70,94,82,62,29.89,29.82,29.77,2,2,1,6,2,,0.00,6,Rain,80
2013-10-13,87,81,75,75,73,68,100,79,52,29.86,29.80,29.74,2,1,1,7,2,,0.00,4,,50
2013-10-14,89,82,75,75,73,72,94,76,55,29.83,29.77,29.71,2,1,1,12,3,,0.00,3,,285
2013-10-15,91,82,73,73,70,63,94,73,43,29.86,29.81,29.77,2,2,1,9,2,,0.00,2,,285
2013-10-16,91,80,69,72,67,59,100,69,34,29.89,29.83,29.77,3,2,1,7,2,,0.00,1,,331
2013-10-17,91,81,71,72,69,64,94,69,41,29.89,29.84,29.80,2,1,1,8,3,,0.00,,,102
2013-10-18,89,81,73,72,70,68,89,70,49,29.95,29.88,29.86,2,1,1,8,3,,0.00,1,,3
2013-10-19,89,79,69,70,64,55,88,65,31,29.98,29.89,29.86,3,2,1,10,4,,0.00,1,,289
2013-10-20,87,76,66,66,61,55,94,62,33,29.95,29.89,29.83,2,1,1,7,1,,0.00,,,325
2013-10-21,87,76,66,66,61,52,94,64,29,29.89,29.84,29.80,2,1,1,9,2,,0.00,,,346
2013-10-22,91,78,64,64,61,55,94,61,29,29.92,29.88,29.83,2,1,1,6,2,,0.00,,,85
2013-10-23,87,78,68,68,64,59,88,65,38,30.04,29.94,29.89,2,1,1,7,3,,0.00,,,100
2013-10-24,86,76,66,68,65,63,94,67,48,30.01,29.94,29.89,2,1,1,6,2,,0.00,3,Fog,49
2013-10-25,86,76,66,66,64,59,94,70,40,29.98,29.89,29.83,1,1,0,7,2,,0.00,,Fog,291
2013-10-26,86,76,66,66,64,63,94,71,45,29.95,29.88,29.83,2,1,0,6,1,,0.00,1,Fog,304
2013-10-27,86,75,64,68,60,50,94,70,29,29.95,29.87,29.80,2,1,0,9,1,,0.00,,Fog,299
2013-10-28,86,75,64,61,58,55,83,61,35,29.89,29.84,29.80,2,1,1,12,3,,0.00,,,276
2013-10-29,87,74,62,59,57,52,88,63,29,29.95,29.88,29.83,1,1,0,7,2,,0.00,,Fog,273
2013-10-30,89,74,60,61,56,52,88,58,27,30.01,29.92,29.86,2,1,0,10,2,,0.00,,Fog,310
2013-10-31,86,77,68,64,58,54,88,55,37,30.01,29.94,29.89,2,1,1,9,3,,0.00,5,,10